createdAt,value
2023-03-03T00:04:31.684Z,88.11
2023-03-03T00:09:34.829Z,88.12
2023-03-03T00:14:38.016Z,88.24
2023-03-03T00:19:42.331Z,88.43
2023-03-03T00:24:45.271Z,88.28
2023-03-03T00:29:55.632Z,88.74
2023-03-03T00:35:26.263Z,88.05
2023-03-03T00:40:40.666Z,88.48
2023-03-03T00:45:53.217Z,88.99
2023-03-03T00:51:01.580Z,88.87
2023-03-03T00:56:04.892Z,88.88
2023-03-03T01:01:08.098Z,88.89
2023-03-03T01:06:12.612Z,89.11
2023-03-03T01:11:25.958Z,89.55
2023-03-03T01:16:29.289Z,89.49
2023-03-03T01:21:32.373Z,89.84
2023-03-03T01:26:35.459Z,89.89
2023-03-03T01:31:38.727Z,90.02
2023-03-03T01:36:41.772Z,90.14
2023-03-03T01:41:44.660Z,89.91
2023-03-03T01:47:13.252Z,89.95
2023-03-03T01:52:47.231Z,90.07
2023-03-03T01:58:01.344Z,90.26
2023-03-03T02:03:05.881Z,90.76
2023-03-03T02:08:12.523Z,90.71
2023-03-03T02:13:15.635Z,90.78
2023-03-03T02:18:21.065Z,91.43
2023-03-03T02:23:46.450Z,91.60
2023-03-03T02:28:50.484Z,91.90
2023-03-03T02:33:55.505Z,91.60
2023-03-03T02:39:13.800Z,92.05
2023-03-03T02:44:20.676Z,91.90
2023-03-03T02:49:34.240Z,92.49
2023-03-03T02:54:38.031Z,92.62
2023-03-03T02:59:40.966Z,92.19
2023-03-03T03:04:43.867Z,92.80
2023-03-03T03:09:46.679Z,92.87
2023-03-03T03:14:49.893Z,92.89
2023-03-03T03:19:52.863Z,92.99
2023-03-03T03:24:55.980Z,93.63
2023-03-03T03:29:58.894Z,93.34
2023-03-03T03:35:02.278Z,93.31
2023-03-03T03:40:06.259Z,93.43
2023-03-03T03:45:09.956Z,93.69
2023-03-03T03:50:13.314Z,93.78
2023-03-03T03:55:16.444Z,93.67
2023-03-03T04:00:19.754Z,94.13
2023-03-03T04:05:23.249Z,93.88
2023-03-03T04:10:26.384Z,94.03
2023-03-03T04:15:30.348Z,94.43
2023-03-03T04:20:33.450Z,94.08
2023-03-03T04:25:36.923Z,94.48
2023-03-03T04:30:40.531Z,94.26
2023-03-03T04:35:43.481Z,94.19
2023-03-03T04:40:46.559Z,94.18
2023-03-03T04:45:49.555Z,94.15
2023-03-03T04:50:52.689Z,94.35
2023-03-03T04:55:55.728Z,94.43
2023-03-03T05:00:59.103Z,94.29
2023-03-03T05:06:02.111Z,94.29
2023-03-03T05:11:05.398Z,94.45
2023-03-03T05:16:09.073Z,94.53
2023-03-03T05:21:12.660Z,94.70
2023-03-03T05:26:15.664Z,94.72
2023-03-03T05:31:18.727Z,95.09
2023-03-03T05:36:22.320Z,95.11
2023-03-03T05:41:25.463Z,95.19
2023-03-03T05:46:28.798Z,95.17
2023-03-03T05:51:31.989Z,95.21
2023-03-03T05:56:35.132Z,95.61
2023-03-03T06:01:39.165Z,95.58
2023-03-03T06:06:42.246Z,95.82
2023-03-03T06:11:45.312Z,95.92
2023-03-03T06:16:48.881Z,96.27
2023-03-03T06:21:51.844Z,95.96
2023-03-03T06:26:55.820Z,96.63
2023-03-03T06:31:58.922Z,96.39
2023-03-03T06:37:02.258Z,96.92
2023-03-03T06:42:05.386Z,96.91
2023-03-03T06:47:08.640Z,96.86
2023-03-03T06:52:27.744Z,96.87
2023-03-03T06:57:34.464Z,97.02
2023-03-03T07:02:37.289Z,96.83
2023-03-03T07:07:40.169Z,96.12
2023-03-03T07:12:43.019Z,95.78
2023-03-03T07:17:51.204Z,95.08
2023-03-03T07:22:54.370Z,94.87
2023-03-03T07:28:12.327Z,94.58
2023-03-03T07:33:41.103Z,94.05
2023-03-03T07:39:01.166Z,93.71
2023-03-03T07:44:21.300Z,93.06
2023-03-03T07:49:37.437Z,92.00
2023-03-03T07:54:43.599Z,90.67
2023-03-03T08:00:02.453Z,89.50
2023-03-03T08:05:31.425Z,87.53
2023-03-03T08:10:53.246Z,84.61
2023-03-03T08:16:22.164Z,80.29
2023-03-03T08:21:26.748Z,76.89
2023-03-03T08:26:29.732Z,73.93
2023-03-03T08:31:41.377Z,71.48
2023-03-03T08:36:44.922Z,71.00
2023-03-03T08:41:47.976Z,70.37
2023-03-03T08:46:50.978Z,69.54
2023-03-03T08:51:54.657Z,68.41
2023-03-03T08:56:57.666Z,67.48
2023-03-03T09:02:00.724Z,63.88
2023-03-03T09:07:03.599Z,61.71
2023-03-03T09:12:22.612Z,58.91
2023-03-03T09:17:37.615Z,56.40
2023-03-03T09:22:40.734Z,54.35
2023-03-03T09:27:43.517Z,52.08
2023-03-03T09:32:46.241Z,50.90
2023-03-03T09:37:52.629Z,50.13
2023-03-03T09:43:26.371Z,48.09
2023-03-03T09:48:47.750Z,46.92
2023-03-03T09:54:18.297Z,46.65
2023-03-03T09:59:44.079Z,48.42
2023-03-03T10:05:15.293Z,50.54
2023-03-03T10:10:49.158Z,52.39
2023-03-03T10:16:19.372Z,53.25
2023-03-03T10:21:50.624Z,55.14
2023-03-03T10:27:12.368Z,55.16
2023-03-03T10:32:41.399Z,53.93
2023-03-03T10:38:15.372Z,52.74
2023-03-03T10:44:18.455Z,49.99
2023-03-03T10:50:21.507Z,48.15
2023-03-03T10:55:53.177Z,43.99
2023-03-03T11:01:31.024Z,46.94
2023-03-03T11:07:16.381Z,47.25
2023-03-03T11:12:35.173Z,48.13
2023-03-03T11:17:49.945Z,46.43
2023-03-03T11:23:07.291Z,45.74
2023-03-03T11:28:44.396Z,44.86
2023-03-03T11:33:53.155Z,45.00
2023-03-03T11:39:00.240Z,45.18
2023-03-03T11:44:06.096Z,45.64
2023-03-03T11:49:18.982Z,45.92
2023-03-03T11:54:56.391Z,45.62
2023-03-03T12:00:17.830Z,43.21
2023-03-03T12:06:05.278Z,43.21
2023-03-03T12:11:43.196Z,42.51
2023-03-03T12:17:15.737Z,41.79
2023-03-03T12:22:33.597Z,40.33
2023-03-03T12:28:05.644Z,40.45
2023-03-03T12:33:31.077Z,39.80
2023-03-03T12:39:25.326Z,39.63
2023-03-03T12:45:11.387Z,40.17
2023-03-03T12:50:48.018Z,41.57
2023-03-03T12:56:00.453Z,41.64
2023-03-03T13:01:36.822Z,42.78
2023-03-03T13:07:25.246Z,43.09
2023-03-03T13:12:42.157Z,44.04
2023-03-03T13:17:54.246Z,44.91
2023-03-03T13:23:31.850Z,45.42
2023-03-03T13:28:58.491Z,43.90
2023-03-03T13:34:02.659Z,43.92
2023-03-03T13:39:22.637Z,43.56
2023-03-03T13:44:39.047Z,43.82
2023-03-03T13:50:07.940Z,44.07
2023-03-03T13:55:44.672Z,44.41
2023-03-03T14:01:02.501Z,45.08
2023-03-03T14:06:15.252Z,44.79
2023-03-03T14:12:20.187Z,45.97
2023-03-03T14:17:58.165Z,46.48
2023-03-03T14:23:33.897Z,46.80
2023-03-03T14:29:35.612Z,47.14
2023-03-03T14:34:41.543Z,47.28
2023-03-03T14:39:49.002Z,48.23
2023-03-03T14:44:56.416Z,47.78
2023-03-03T14:50:03.582Z,47.84
2023-03-03T14:55:38.827Z,47.73
2023-03-03T15:00:41.789Z,48.30
2023-03-03T15:05:57.879Z,48.27
2023-03-03T15:11:17.418Z,48.78
2023-03-03T15:16:31.947Z,48.31
2023-03-03T15:21:40.662Z,48.08
2023-03-03T15:27:00.339Z,48.47
2023-03-03T15:32:44.765Z,48.61
2023-03-03T15:38:22.505Z,48.84
2023-03-03T15:43:35.188Z,49.22
2023-03-03T15:48:57.151Z,49.76
2023-03-03T15:54:25.379Z,50.01
2023-03-03T15:59:51.133Z,50.32
2023-03-03T16:05:22.704Z,50.65
2023-03-03T16:11:06.762Z,51.03
2023-03-03T16:16:37.067Z,51.79
2023-03-03T16:22:24.669Z,52.24
2023-03-03T16:28:08.765Z,52.56
2023-03-03T16:33:44.035Z,52.65
2023-03-03T16:39:31.987Z,53.31
2023-03-03T16:44:43.237Z,53.95
2023-03-03T16:49:59.460Z,54.32
2023-03-03T16:55:32.636Z,54.65
2023-03-03T17:01:08.839Z,55.37
2023-03-03T17:06:48.365Z,55.82
2023-03-03T17:12:26.907Z,56.39
2023-03-03T17:17:54.358Z,56.61
2023-03-03T17:23:43.233Z,57.40
2023-03-03T17:29:18.521Z,58.14
2023-03-03T17:35:20.311Z,58.91
2023-03-03T17:41:07.516Z,59.70
2023-03-03T17:46:31.388Z,60.79
2023-03-03T17:57:59.348Z,63.53
2023-03-03T18:03:15.787Z,63.93
2023-03-03T18:08:47.064Z,64.21
2023-03-03T18:14:15.967Z,64.59
2023-03-03T18:19:50.495Z,64.22
2023-03-03T18:24:55.192Z,63.50
2023-03-03T18:30:51.956Z,62.93
2023-03-03T18:36:36.590Z,61.87
2023-03-03T18:42:15.660Z,61.18
2023-03-03T18:47:21.330Z,60.92
2023-03-03T18:52:31.821Z,60.38
2023-03-03T18:57:35.827Z,59.64
2023-03-03T19:02:49.691Z,59.10
2023-03-03T19:08:18.760Z,59.04
2023-03-03T19:13:33.725Z,58.33
2023-03-03T19:18:42.584Z,57.85
2023-03-03T19:23:59.955Z,57.76
2023-03-03T19:29:27.871Z,57.95
2023-03-03T19:35:01.744Z,58.10
2023-03-03T19:41:09.738Z,58.42
2023-03-03T19:47:19.026Z,58.32
2023-03-03T19:53:06.136Z,58.76
2023-03-03T19:58:23.281Z,59.39
2023-03-03T20:03:54.703Z,59.90
2023-03-03T20:09:16.270Z,60.45
2023-03-03T20:15:02.329Z,61.29
2023-03-03T20:20:36.534Z,62.13
2023-03-03T20:26:14.808Z,62.98
2023-03-03T20:31:48.025Z,63.95
2023-03-03T20:37:10.399Z,64.71
2023-03-03T20:42:56.203Z,65.25
2023-03-03T20:48:40.858Z,66.20
2023-03-03T20:54:38.406Z,67.07
2023-03-03T21:00:22.741Z,67.26
2023-03-03T21:05:26.394Z,67.87
2023-03-03T21:10:36.128Z,68.24
2023-03-03T21:15:39.894Z,67.75
2023-03-03T21:20:42.626Z,67.49
2023-03-03T21:25:54.563Z,66.78
2023-03-03T21:31:18.025Z,66.25
2023-03-03T21:36:31.931Z,66.40
2023-03-03T21:42:14.499Z,66.47
2023-03-03T21:47:19.958Z,67.22
2023-03-03T21:52:23.040Z,67.05
2023-03-03T21:57:25.943Z,67.13
2023-03-03T22:02:29.109Z,67.14
2023-03-03T22:07:32.257Z,67.02
2023-03-03T22:12:35.316Z,67.25
2023-03-03T22:17:38.476Z,67.91
2023-03-03T22:22:42.244Z,68.52
2023-03-03T22:27:45.175Z,69.89
2023-03-03T22:32:52.320Z,70.35
2023-03-03T22:37:55.220Z,70.78
2023-03-03T22:42:59.186Z,71.18
2023-03-03T22:48:02.233Z,71.69
2023-03-03T22:53:08.058Z,71.81
2023-03-03T22:58:12.207Z,71.80
2023-03-03T23:03:16.261Z,71.99
2023-03-03T23:08:20.530Z,72.22
2023-03-03T23:13:25.198Z,72.71
2023-03-03T23:18:28.790Z,72.14
2023-03-03T23:23:32.364Z,70.59
2023-03-03T23:28:35.549Z,68.93
2023-03-03T23:33:38.575Z,67.65
2023-03-03T23:38:43.194Z,66.96
2023-03-03T23:43:46.373Z,66.33
2023-03-03T23:48:49.448Z,66.58
2023-03-03T23:53:52.481Z,66.41
2023-03-03T23:58:55.623Z,66.49
